Time;durP1;ratioP1;P1;durP2;ratioP2;P2;SDS_P1;SDS_P2;PMS_P1;PMS_P2;Temp;Humidity;BMP_temperature;BMP_pressure;BME280_temperature;BME280_humidity;BME280_pressure;Samples;Min_cycle;Max_cycle;Signal;HPM_P1;HPM_P2
2022/02/05 00:02:12;;;;;;;;;;;19.20;58.60;;;;;;5053521;28;1290;-67
2022/02/05 00:04:38;;;;;;;;;;;19.20;58.60;;;;;;5052059;28;1398;-67
2022/02/05 00:07:05;;;;;;;;;;;19.20;58.70;;;;;;5042338;28;1063;-68
2022/02/05 00:10:19;;;;;;;;;;;19.20;58.70;;;;;;5052742;28;1357;-66
2022/02/05 00:12:43;;;;;;;;;;;19.10;58.60;;;;;;5050322;28;1085;-66
2022/02/05 00:15:26;;;;;;;;;;;19.20;58.80;;;;;;5052636;28;1299;-66
2022/02/05 00:39:42;;;;;;;;;;;19.10;58.80;;;;;;5052301;28;1012;-67
2022/02/05 00:42:30;;;;;;;;;;;19.10;58.90;;;;;;5037971;28;1319;-67
2022/02/05 00:44:55;;;;;;;;;;;19.10;58.90;;;;;;5052383;28;1225;-66
2022/02/05 00:47:21;;;;;;;;;;;19.10;58.90;;;;;;5034538;28;1341;-67
2022/02/05 00:49:51;;;;;;;;;;;19.10;58.90;;;;;;5052015;28;1390;-67
2022/02/05 00:52:19;;;;;;;;;;;19.10;58.90;;;;;;5035113;28;1271;-65
2022/02/05 00:54:49;;;;;;;;;;;19.10;58.90;;;;;;5052465;28;1389;-67
2022/02/05 00:57:34;;;;;;;;;;;19.00;58.90;;;;;;5034104;28;1958;-66
2022/02/05 00:59:59;;;;;;;;;;;19.00;58.90;;;;;;5051936;28;1405;-67
2022/02/05 01:02:25;;;;;;;;;;;19.00;59.50;;;;;;5052208;28;1277;-66
2022/02/05 01:04:50;;;;;;;;;;;19.00;58.90;;;;;;5052098;28;1263;-66
2022/02/05 01:07:15;;;;;;;;;;;19.00;58.90;;;;;;5052157;28;1397;-67
2022/02/05 01:09:44;;;;;;;;;;;19.00;59.00;;;;;;5033831;28;1418;-67
2022/02/05 01:12:10;;;;;;;;;;;19.00;59.00;;;;;;5053945;28;1280;-67
2022/02/05 01:14:45;;;;;;;;;;;19.00;59.00;;;;;;5055614;28;1349;-66
2022/02/05 01:17:12;;;;;;;;;;;19.00;59.00;;;;;;5055539;28;1894;-66
2022/02/05 01:22:21;;;;;;;;;;;19.00;59.00;;;;;;5055614;28;1411;-66
2022/02/05 01:24:49;;;;;;;;;;;19.00;59.00;;;;;;5055487;28;1400;-66
2022/02/05 01:27:27;;;;;;;;;;;19.00;59.00;;;;;;5055247;28;1381;-65
2022/02/05 01:32:27;;;;;;;;;;;19.00;59.00;;;;;;5055208;28;1054;-66
2022/02/05 01:35:04;;;;;;;;;;;19.00;59.10;;;;;;5037969;28;1319;-68
2022/02/05 01:54:01;;;;;;;;;;;19.00;59.20;;;;;;5054922;28;1408;-67
2022/02/05 01:56:37;;;;;;;;;;;18.90;59.10;;;;;;5054327;28;1910;-67
2022/02/05 02:07:25;;;;;;;;;;;18.90;59.20;;;;;;5054758;28;1336;-65
2022/02/05 02:12:20;;;;;;;;;;;18.90;59.20;;;;;;5054934;28;1335;-66
2022/02/05 02:15:01;;;;;;;;;;;18.90;59.20;;;;;;5054454;28;1383;-66
2022/02/05 02:20:27;;;;;;;;;;;18.90;59.20;;;;;;5054232;28;1072;-67
2022/02/05 02:23:17;;;;;;;;;;;18.90;59.20;;;;;;5053945;28;1410;-66
2022/02/05 02:25:58;;;;;;;;;;;18.90;59.20;;;;;;5054266;28;1331;-67
2022/02/05 02:28:42;;;;;;;;;;;18.90;59.20;;;;;;5054737;28;1424;-67
2022/02/05 02:31:13;;;;;;;;;;;18.90;59.20;;;;;;5025992;28;1387;-67
2022/02/05 02:33:44;;;;;;;;;;;18.90;59.20;;;;;;5054145;28;1285;-66
2022/02/05 02:36:15;;;;;;;;;;;18.90;59.30;;;;;;5026697;28;1955;-66
2022/02/05 02:38:47;;;;;;;;;;;18.90;59.30;;;;;;5054479;28;1308;-66
2022/02/05 02:41:19;;;;;;;;;;;18.80;59.30;;;;;;5053925;28;1051;-66
2022/02/05 02:43:45;;;;;;;;;;;18.90;59.30;;;;;;5054163;28;1391;-67
2022/02/05 02:46:10;;;;;;;;;;;18.80;59.30;;;;;;5053807;28;1054;-68
2022/02/05 02:48:36;;;;;;;;;;;18.80;59.30;;;;;;5053547;28;1092;-68
2022/02/05 02:58:51;;;;;;;;;;;18.80;59.30;;;;;;5036183;28;1335;-67
2022/02/05 03:01:19;;;;;;;;;;;18.80;59.30;;;;;;5053537;28;1371;-66
2022/02/05 03:03:44;;;;;;;;;;;18.80;59.30;;;;;;5053626;28;1385;-67
2022/02/05 03:06:10;;;;;;;;;;;18.80;59.30;;;;;;5035588;28;1351;-67
2022/02/05 03:08:35;;;;;;;;;;;18.80;59.40;;;;;;5035599;28;1271;-67
2022/02/05 03:11:01;;;;;;;;;;;18.80;59.40;;;;;;5053516;28;1327;-67
2022/02/05 03:13:26;;;;;;;;;;;18.80;59.40;;;;;;5053407;28;1362;-66
2022/02/05 03:15:52;;;;;;;;;;;18.80;59.40;;;;;;5053422;28;1957;-66
2022/02/05 03:18:31;;;;;;;;;;;18.80;59.40;;;;;;5053260;28;1420;-66
2022/02/05 03:20:56;;;;;;;;;;;18.80;59.40;;;;;;5053140;28;1283;-66
2022/02/05 03:23:22;;;;;;;;;;;18.80;59.40;;;;;;5053515;28;1341;-67
2022/02/05 03:25:47;;;;;;;;;;;18.80;59.40;;;;;;5053067;28;1400;-67
2022/02/05 03:28:13;;;;;;;;;;;18.80;59.40;;;;;;5035268;28;1294;-67
2022/02/05 03:30:38;;;;;;;;;;;18.80;60.00;;;;;;5035059;28;1151;-66
2022/02/05 03:33:04;;;;;;;;;;;18.80;59.40;;;;;;5035405;28;1398;-67
2022/02/05 03:35:29;;;;;;;;;;;18.80;59.40;;;;;;5052026;28;1287;-66
2022/02/05 03:37:55;;;;;;;;;;;18.80;59.40;;;;;;5053057;28;1952;-66
2022/02/05 03:40:20;;;;;;;;;;;18.80;59.40;;;;;;5052741;28;1386;-67
2022/02/05 03:42:45;;;;;;;;;;;18.80;59.40;;;;;;5035169;28;1265;-67
2022/02/05 03:45:11;;;;;;;;;;;18.80;59.40;;;;;;5053048;28;1407;-66
2022/02/05 03:47:37;;;;;;;;;;;18.80;59.40;;;;;;5035155;28;1151;-66
2022/02/05 03:50:04;;;;;;;;;;;18.80;59.40;;;;;;5034574;28;1107;-67
2022/02/05 03:52:29;;;;;;;;;;;18.80;59.50;;;;;;5052893;28;1107;-67
2022/02/05 03:54:55;;;;;;;;;;;18.80;59.50;;;;;;5052760;28;1411;-67
2022/02/05 03:57:20;;;;;;;;;;;18.80;59.50;;;;;;5052764;28;1894;-66
2022/02/05 03:59:45;;;;;;;;;;;18.80;59.50;;;;;;5052703;28;1277;-66
2022/02/05 04:02:11;;;;;;;;;;;18.80;59.50;;;;;;5052987;28;1295;-67
2022/02/05 04:04:36;;;;;;;;;;;18.70;59.40;;;;;;5052619;28;1375;-66
2022/02/05 04:07:03;;;;;;;;;;;18.70;60.00;;;;;;5053183;28;1266;-66
2022/02/05 04:09:35;;;;;;;;;;;18.70;59.40;;;;;;5052757;28;1289;-67
2022/02/05 04:17:24;;;;;;;;;;;18.70;59.50;;;;;;5037927;28;1902;-67
2022/02/05 04:19:50;;;;;;;;;;;18.70;59.50;;;;;;5052868;28;1452;-67
2022/02/05 04:22:15;;;;;;;;;;;18.70;59.50;;;;;;5052855;28;1389;-66
2022/02/05 04:24:41;;;;;;;;;;;18.70;59.50;;;;;;5034873;28;1285;-67
2022/02/05 04:27:06;;;;;;;;;;;18.70;59.50;;;;;;5035545;28;1323;-67
2022/02/05 04:29:31;;;;;;;;;;;18.70;59.50;;;;;;5053217;28;1190;-67
2022/02/05 04:31:57;;;;;;;;;;;18.70;59.50;;;;;;5036204;28;1116;-67
2022/02/05 04:34:22;;;;;;;;;;;18.70;59.50;;;;;;5053684;28;1350;-67
2022/02/05 04:36:48;;;;;;;;;;;18.70;59.50;;;;;;5053861;28;1961;-67
2022/02/05 04:39:16;;;;;;;;;;;18.70;59.50;;;;;;5053613;28;1086;-67
2022/02/05 04:50:10;;;;;;;;;;;18.70;59.50;;;;;;5057126;28;1057;-65
2022/02/05 04:58:02;;;;;;;;;;;18.90;59.40;;;;;;5056634;28;1907;-67
2022/02/05 05:06:00;;;;;;;;;;;19.20;58.90;;;;;;5056184;28;1389;-67
2022/02/05 05:08:49;;;;;;;;;;;19.30;58.60;;;;;;5055697;28;1165;-67
2022/02/05 05:19:29;;;;;;;;;;;19.90;57.30;;;;;;5055411;28;1328;-67
2022/02/05 05:21:54;;;;;;;;;;;20.10;57.00;;;;;;5052300;28;1239;-64
2022/02/05 05:24:20;;;;;;;;;;;20.20;56.70;;;;;;5050781;28;1371;-65
2022/02/05 05:26:45;;;;;;;;;;;20.30;56.40;;;;;;5049024;28;1243;-64
2022/02/05 05:29:11;;;;;;;;;;;20.40;56.20;;;;;;5031378;28;1382;-67
2022/02/05 05:31:36;;;;;;;;;;;20.50;55.90;;;;;;5048636;28;1215;-67
2022/02/05 05:34:01;;;;;;;;;;;20.60;55.80;;;;;;5051542;28;1283;-66
2022/02/05 05:36:29;;;;;;;;;;;20.60;55.60;;;;;;5046374;28;1906;-67
2022/02/05 05:39:00;;;;;;;;;;;20.70;55.40;;;;;;5049575;28;1283;-66
2022/02/05 05:41:25;;;;;;;;;;;20.80;55.20;;;;;;5048082;28;1278;-67
2022/02/05 05:44:06;;;;;;;;;;;20.80;55.10;;;;;;5052406;28;1483;-67
2022/02/05 05:46:34;;;;;;;;;;;20.90;55.00;;;;;;5047369;28;1081;-67
2022/02/05 05:49:12;;;;;;;;;;;20.90;54.80;;;;;;5048314;28;1180;-66
2022/02/05 05:51:38;;;;;;;;;;;21.00;54.70;;;;;;5030509;28;1192;-67
2022/02/05 05:54:03;;;;;;;;;;;21.00;54.70;;;;;;5046672;28;1391;-67
2022/02/05 05:56:29;;;;;;;;;;;21.00;54.50;;;;;;5030910;28;1969;-67
2022/02/05 05:58:54;;;;;;;;;;;21.10;54.50;;;;;;5046809;28;1303;-67
2022/02/05 06:01:20;;;;;;;;;;;21.10;54.40;;;;;;5050130;28;1192;-66
2022/02/05 06:03:45;;;;;;;;;;;21.10;54.30;;;;;;5049689;28;1918;-68
2022/02/05 06:06:10;;;;;;;;;;;21.20;54.30;;;;;;5030813;28;1606;-66
2022/02/05 06:08:36;;;;;;;;;;;21.20;54.20;;;;;;5013590;28;1342;-67
2022/02/05 06:11:01;;;;;;;;;;;21.20;54.20;;;;;;5049464;28;1266;-67
2022/02/05 06:13:27;;;;;;;;;;;21.20;54.10;;;;;;5048953;28;1294;-67
2022/02/05 06:15:55;;;;;;;;;;;21.30;54.10;;;;;;5048271;28;1961;-67
2022/02/05 06:18:20;;;;;;;;;;;21.30;54.10;;;;;;5029073;28;1144;-68
2022/02/05 06:20:45;;;;;;;;;;;21.30;54.10;;;;;;5048627;28;1286;-68
2022/02/05 06:23:11;;;;;;;;;;;21.30;54.20;;;;;;5047780;28;1310;-68
2022/02/05 06:25:38;;;;;;;;;;;21.30;54.20;;;;;;5050205;28;1370;-68
2022/02/05 06:28:04;;;;;;;;;;;21.30;54.20;;;;;;5052751;28;1172;-67
2022/02/05 06:30:29;;;;;;;;;;;21.30;54.30;;;;;;5027676;28;1434;-67
2022/02/05 06:32:54;;;;;;;;;;;21.30;54.30;;;;;;5046879;28;1306;-67
2022/02/05 06:35:21;;;;;;;;;;;21.30;54.30;;;;;;5029646;28;1224;-68
2022/02/05 06:37:46;;;;;;;;;;;21.30;54.40;;;;;;5045875;28;1973;-68
2022/02/05 06:40:12;;;;;;;;;;;21.30;54.40;;;;;;5031672;28;1228;-67
2022/02/05 06:42:37;;;;;;;;;;;21.30;54.30;;;;;;5027752;28;1369;-66
2022/02/05 06:45:03;;;;;;;;;;;21.30;54.40;;;;;;5047607;28;1188;-67
2022/02/05 06:47:28;;;;;;;;;;;21.20;54.90;;;;;;5030098;28;1208;-67
2022/02/05 06:49:54;;;;;;;;;;;21.20;54.40;;;;;;5030538;28;1330;-67
2022/02/05 06:52:19;;;;;;;;;;;21.20;54.40;;;;;;5049794;28;1232;-65
2022/02/05 06:54:45;;;;;;;;;;;21.20;54.40;;;;;;5028226;28;1426;-66
2022/02/05 06:57:10;;;;;;;;;;;21.10;54.40;;;;;;5048441;28;1959;-66
2022/02/05 06:59:36;;;;;;;;;;;21.10;54.50;;;;;;5046072;28;1216;-65
2022/02/05 07:02:01;;;;;;;;;;;21.10;54.60;;;;;;5050860;28;1219;-67
2022/02/05 07:04:27;;;;;;;;;;;21.10;54.60;;;;;;5030029;28;1361;-66
2022/02/05 07:06:56;;;;;;;;;;;21.10;54.70;;;;;;5032628;28;1231;-69
2022/02/05 07:09:23;;;;;;;;;;;21.10;54.70;;;;;;5030135;28;1153;-68
2022/02/05 07:11:48;;;;;;;;;;;21.00;54.70;;;;;;5047105;28;1139;-66
2022/02/05 07:14:16;;;;;;;;;;;21.00;54.80;;;;;;5044541;28;1295;-67
2022/02/05 07:16:51;;;;;;;;;;;21.00;54.80;;;;;;5053398;28;1969;-66
2022/02/05 07:19:40;;;;;;;;;;;21.00;54.90;;;;;;5044978;28;1282;-67
2022/02/05 07:22:05;;;;;;;;;;;21.00;54.90;;;;;;5045531;28;1095;-66
2022/02/05 07:29:12;;;;;;;;;;;20.90;55.00;;;;;;5048807;28;1296;-67
2022/02/05 07:30:00;;;;;;;;;;;20.90;55.10;;;;;;5043609;28;1125;-67
2022/02/05 07:32:26;;;;;;;;;;;20.90;55.20;;;;;;5031099;28;1667;-67
2022/02/05 07:34:51;;;;;;;;;;;20.80;55.20;;;;;;5031682;28;1247;-66
2022/02/05 07:37:18;;;;;;;;;;;20.80;55.30;;;;;;5052930;28;1914;-67
2022/02/05 07:39:48;;;;;;;;;;;20.80;55.30;;;;;;5052645;28;1091;-67
2022/02/05 07:42:13;;;;;;;;;;;20.80;55.30;;;;;;5053014;28;1323;-67
2022/02/05 07:44:39;;;;;;;;;;;20.80;55.40;;;;;;5035203;28;1355;-68
2022/02/05 07:47:05;;;;;;;;;;;20.80;55.40;;;;;;5053233;28;1390;-67
2022/02/05 07:49:37;;;;;;;;;;;20.70;55.40;;;;;;5052757;28;1401;-68
2022/02/05 07:52:03;;;;;;;;;;;20.70;55.50;;;;;;5052937;28;988;-67
2022/02/05 07:54:28;;;;;;;;;;;20.70;55.50;;;;;;5052751;28;1290;-67
2022/02/05 07:56:54;;;;;;;;;;;20.70;55.50;;;;;;5052730;28;1910;-67
2022/02/05 07:59:19;;;;;;;;;;;20.70;55.50;;;;;;5052711;28;1123;-65
2022/02/05 08:01:45;;;;;;;;;;;20.70;55.60;;;;;;5052758;28;1278;-66
2022/02/05 08:04:10;;;;;;;;;;;20.70;55.60;;;;;;5034711;28;1292;-67
2022/02/05 08:06:36;;;;;;;;;;;20.70;56.30;;;;;;5034998;28;1426;-67
2022/02/05 08:09:05;;;;;;;;;;;20.70;55.70;;;;;;5049478;28;1410;-67
2022/02/05 08:11:39;;;;;;;;;;;20.60;55.70;;;;;;5031880;28;1334;-67
2022/02/05 08:14:08;;;;;;;;;;;20.60;55.70;;;;;;5046437;28;1318;-67
2022/02/05 08:19:18;;;;;;;;;;;20.60;55.80;;;;;;5046745;28;1378;-66
2022/02/05 08:21:44;;;;;;;;;;;20.60;55.80;;;;;;5047293;28;1291;-67
2022/02/05 08:24:09;;;;;;;;;;;20.60;55.80;;;;;;5032996;28;1363;-67
2022/02/05 08:26:36;;;;;;;;;;;20.60;55.90;;;;;;5032150;28;1224;-66
2022/02/05 08:29:02;;;;;;;;;;;20.60;55.90;;;;;;5053847;28;1251;-67
2022/02/05 08:31:27;;;;;;;;;;;20.60;55.90;;;;;;5046873;28;956;-67
2022/02/05 08:33:53;;;;;;;;;;;20.60;55.90;;;;;;5053522;28;1355;-68
2022/02/05 08:36:21;;;;;;;;;;;20.60;55.90;;;;;;5056411;28;1906;-68
2022/02/05 08:38:46;;;;;;;;;;;20.60;55.80;;;;;;5055987;28;1378;-68
2022/02/05 08:41:12;;;;;;;;;;;20.60;55.80;;;;;;5038458;28;1385;-67
2022/02/05 08:43:37;;;;;;;;;;;20.70;55.80;;;;;;5055890;28;1330;-67
2022/02/05 08:46:02;;;;;;;;;;;20.70;55.70;;;;;;5056308;28;796;-68
2022/02/05 08:48:28;;;;;;;;;;;20.80;55.60;;;;;;5056034;28;1359;-67
2022/02/05 08:50:53;;;;;;;;;;;20.80;55.50;;;;;;5056190;28;1082;-67
2022/02/05 08:53:21;;;;;;;;;;;20.80;55.40;;;;;;5038331;28;1372;-67
2022/02/05 08:55:47;;;;;;;;;;;20.90;55.40;;;;;;5056182;28;1076;-68
2022/02/05 08:58:12;;;;;;;;;;;20.90;55.30;;;;;;5037530;28;1918;-66
2022/02/05 09:00:46;;;;;;;;;;;20.90;55.20;;;;;;5056092;28;1320;-67
2022/02/05 09:03:22;;;;;;;;;;;20.90;55.20;;;;;;5022608;28;2143;-69
2022/02/05 09:05:49;;;;;;;;;;;21.00;55.10;;;;;;5039746;28;1082;-67
2022/02/05 09:10:56;;;;;;;;;;;21.00;55.00;;;;;;5055715;28;1301;-67
2022/02/05 09:13:38;;;;;;;;;;;21.00;55.00;;;;;;5039065;28;1354;-68
2022/02/05 09:16:04;;;;;;;;;;;21.00;55.00;;;;;;5040206;28;1953;-67
2022/02/05 09:18:29;;;;;;;;;;;21.00;55.00;;;;;;5037633;28;1090;-66
2022/02/05 09:20:55;;;;;;;;;;;21.00;55.00;;;;;;5055525;28;1310;-67
2022/02/05 09:23:20;;;;;;;;;;;21.00;55.00;;;;;;5037351;28;1340;-67
2022/02/05 09:25:46;;;;;;;;;;;21.00;55.00;;;;;;5037694;28;1633;-66
2022/02/05 09:28:11;;;;;;;;;;;21.00;55.10;;;;;;5055235;28;1052;-66
2022/02/05 09:30:48;;;;;;;;;;;20.90;55.00;;;;;;5055194;28;1293;-67
2022/02/05 09:33:13;;;;;;;;;;;21.00;55.10;;;;;;5037974;28;1271;-67
2022/02/05 09:35:39;;;;;;;;;;;20.90;55.10;;;;;;5055032;28;1390;-67
2022/02/05 09:38:04;;;;;;;;;;;20.90;55.10;;;;;;5055021;28;1952;-67
2022/02/05 09:40:29;;;;;;;;;;;20.90;55.20;;;;;;5054774;28;1398;-67
2022/02/05 09:42:55;;;;;;;;;;;20.90;55.20;;;;;;5037196;28;1294;-67
2022/02/05 09:45:20;;;;;;;;;;;20.90;55.20;;;;;;5037238;28;1305;-67
2022/02/05 09:47:46;;;;;;;;;;;20.90;55.30;;;;;;5037187;28;1065;-67
2022/02/05 09:50:11;;;;;;;;;;;20.90;55.30;;;;;;5036976;28;1290;-67
2022/02/05 09:52:37;;;;;;;;;;;20.80;55.30;;;;;;5054577;28;1260;-67
2022/02/05 09:55:02;;;;;;;;;;;20.90;55.40;;;;;;5054835;28;1405;-67
2022/02/05 09:57:28;;;;;;;;;;;20.80;55.40;;;;;;5054903;28;1957;-67
2022/02/05 09:59:59;;;;;;;;;;;20.80;56.00;;;;;;5047139;28;2276;-66
2022/02/05 10:02:28;;;;;;;;;;;20.80;55.50;;;;;;5039723;28;1237;-66
2022/02/05 10:05:06;;;;;;;;;;;20.80;55.50;;;;;;5049556;28;1359;-66
2022/02/05 10:07:32;;;;;;;;;;;20.80;55.60;;;;;;5037690;28;1440;-66
2022/02/05 10:10:01;;;;;;;;;;;20.70;55.50;;;;;;5036434;28;1072;-67
2022/02/05 10:12:26;;;;;;;;;;;20.70;55.60;;;;;;5036842;28;1362;-67
2022/02/05 10:14:54;;;;;;;;;;;20.70;55.60;;;;;;5036682;28;1397;-67
2022/02/05 10:17:20;;;;;;;;;;;20.70;55.60;;;;;;5054361;28;1973;-66
2022/02/05 10:19:49;;;;;;;;;;;20.70;55.60;;;;;;5054041;28;1068;-66
2022/02/05 10:22:14;;;;;;;;;;;20.70;55.70;;;;;;5054289;28;1344;-68
2022/02/05 10:24:53;;;;;;;;;;;20.70;55.70;;;;;;5036482;28;1299;-67
2022/02/05 10:27:28;;;;;;;;;;;20.70;55.70;;;;;;5054585;28;1515;-67
2022/02/05 10:30:10;;;;;;;;;;;20.70;55.70;;;;;;5053905;28;1237;-67
2022/02/05 10:32:41;;;;;;;;;;;20.70;55.70;;;;;;5054562;28;1256;-67
2022/02/05 10:35:24;;;;;;;;;;;20.70;55.70;;;;;;5054340;28;1342;-67
2022/02/05 10:37:59;;;;;;;;;;;20.70;55.70;;;;;;5054176;28;1902;-67
2022/02/05 10:43:06;;;;;;;;;;;20.80;55.70;;;;;;5053139;28;1342;-67
2022/02/05 10:45:40;;;;;;;;;;;20.80;55.60;;;;;;5054092;28;1370;-68
2022/02/05 10:48:05;;;;;;;;;;;20.80;55.60;;;;;;5053995;28;1356;-67
2022/02/05 10:50:33;;;;;;;;;;;20.80;55.50;;;;;;5052050;28;1966;-67
2022/02/05 10:53:32;;;;;;;;;;;20.80;55.50;;;;;;5032501;28;1900;-67
2022/02/05 10:56:23;;;;;;;;;;;20.80;55.40;;;;;;5047530;28;1977;-67
2022/02/05 11:07:01;;;;;;;;;;;20.90;55.40;;;;;;5038513;28;1272;-67
2022/02/05 11:09:26;;;;;;;;;;;20.90;55.50;;;;;;5035268;28;1076;-67
2022/02/05 11:19:59;;;;;;;;;;;20.90;55.40;;;;;;5030811;28;1518;-67
2022/02/05 11:22:24;;;;;;;;;;;20.80;55.40;;;;;;5029179;28;1640;-66
2022/02/05 11:24:50;;;;;;;;;;;20.80;55.40;;;;;;5029796;28;1592;-67
2022/02/05 11:27:16;;;;;;;;;;;20.80;55.40;;;;;;5029013;28;1733;-67
2022/02/05 11:29:42;;;;;;;;;;;20.80;55.40;;;;;;5027935;28;1398;-65
2022/02/05 11:32:24;;;;;;;;;;;20.80;55.50;;;;;;5048003;28;1544;-66
2022/02/05 11:35:04;;;;;;;;;;;20.80;55.50;;;;;;5045793;28;1535;-66
2022/02/05 11:37:30;;;;;;;;;;;20.80;55.50;;;;;;5015007;28;1965;-67
2022/02/05 11:39:55;;;;;;;;;;;20.80;55.50;;;;;;5030439;28;1612;-66
2022/02/05 11:42:30;;;;;;;;;;;20.80;55.50;;;;;;5048730;28;1369;-66
2022/02/05 11:44:56;;;;;;;;;;;20.80;55.60;;;;;;5047667;28;1510;-66
2022/02/05 11:47:21;;;;;;;;;;;20.80;55.60;;;;;;5031986;28;1607;-66
2022/02/05 11:49:53;;;;;;;;;;;20.80;55.60;;;;;;5047028;28;1592;-66
2022/02/05 11:52:40;;;;;;;;;;;20.80;55.60;;;;;;5045283;28;1605;-65
2022/02/05 11:55:09;;;;;;;;;;;20.80;55.60;;;;;;5043590;28;1396;-66
2022/02/05 11:57:44;;;;;;;;;;;20.80;55.50;;;;;;5045822;28;1964;-66
2022/02/05 12:00:11;;;;;;;;;;;20.80;55.50;;;;;;5046611;28;1406;-66
2022/02/05 12:02:37;;;;;;;;;;;20.90;55.50;;;;;;5023241;28;2009;-66
2022/02/05 12:05:15;;;;;;;;;;;20.90;55.40;;;;;;5050619;28;2235;-67
2022/02/05 12:08:00;;;;;;;;;;;20.90;55.30;;;;;;5045524;28;1314;-68
2022/02/05 12:10:38;;;;;;;;;;;21.00;55.30;;;;;;5044438;28;1067;-66
2022/02/05 12:13:16;;;;;;;;;;;21.00;55.20;;;;;;5034765;28;1366;-67
2022/02/05 12:15:42;;;;;;;;;;;21.00;55.10;;;;;;5045184;28;1117;-67
2022/02/05 12:20:52;;;;;;;;;;;21.00;55.00;;;;;;5052166;28;1289;-66
2022/02/05 12:26:04;;;;;;;;;;;21.10;55.10;;;;;;5052480;28;1136;-67
2022/02/05 12:28:29;;;;;;;;;;;21.10;55.00;;;;;;5034099;28;1352;-66
2022/02/05 12:31:00;;;;;;;;;;;21.10;55.10;;;;;;5048726;28;2030;-68
2022/02/05 12:33:26;;;;;;;;;;;21.10;55.00;;;;;;5050243;28;1358;-66
2022/02/05 12:35:53;;;;;;;;;;;21.10;55.00;;;;;;5027986;28;1151;-66
2022/02/05 12:38:18;;;;;;;;;;;21.10;55.00;;;;;;5047027;28;1914;-67
2022/02/05 12:40:44;;;;;;;;;;;21.10;55.10;;;;;;5052631;28;1284;-67
2022/02/05 12:43:10;;;;;;;;;;;21.10;55.10;;;;;;5034095;28;1363;-66
2022/02/05 12:45:36;;;;;;;;;;;21.00;55.00;;;;;;5052110;28;1377;-67
2022/02/05 12:48:06;;;;;;;;;;;21.10;55.10;;;;;;5052062;28;1107;-67
2022/02/05 12:50:31;;;;;;;;;;;21.00;55.00;;;;;;5035129;28;2262;-66
2022/02/05 12:52:56;;;;;;;;;;;21.00;55.10;;;;;;5036998;28;1892;-66
2022/02/05 12:55:26;;;;;;;;;;;21.00;55.10;;;;;;5047099;28;2208;-67
2022/02/05 12:57:58;;;;;;;;;;;21.00;55.20;;;;;;5053141;28;1918;-68
2022/02/05 13:00:23;;;;;;;;;;;21.00;55.20;;;;;;5033930;28;1166;-69
2022/02/05 13:02:49;;;;;;;;;;;21.00;55.20;;;;;;5052349;28;1338;-69
2022/02/05 13:05:14;;;;;;;;;;;21.00;55.20;;;;;;5052205;28;1142;-69
2022/02/05 13:07:40;;;;;;;;;;;20.90;55.20;;;;;;5055276;28;1291;-67
2022/02/05 13:10:06;;;;;;;;;;;20.90;55.30;;;;;;5037733;28;1436;-67
2022/02/05 13:12:34;;;;;;;;;;;20.90;55.30;;;;;;5056422;28;1310;-69
2022/02/05 13:15:01;;;;;;;;;;;20.90;55.40;;;;;;5055665;28;1300;-70
2022/02/05 13:18:39;;;;;;;;;;;20.90;55.30;;;;;;5056419;28;1973;-68
2022/02/05 13:25:54;;;;;;;;;;;20.90;55.40;;;;;;5055744;28;1367;-68
2022/02/05 13:38:57;;;;;;;;;;;20.80;55.60;;;;;;5056162;28;1288;-70
2022/02/05 13:41:36;;;;;;;;;;;20.80;55.60;;;;;;5040902;28;1331;-70
2022/02/05 13:44:02;;;;;;;;;;;20.80;55.60;;;;;;5055326;28;1220;-69
2022/02/05 13:46:27;;;;;;;;;;;20.70;55.60;;;;;;5056369;28;1396;-71
2022/02/05 13:48:53;;;;;;;;;;;20.70;55.70;;;;;;5037166;28;1341;-69
2022/02/05 13:51:18;;;;;;;;;;;20.70;55.70;;;;;;5053630;28;1818;-69
2022/02/05 13:53:51;;;;;;;;;;;20.70;55.70;;;;;;5054298;28;1277;-69
2022/02/05 13:56:16;;;;;;;;;;;20.70;55.80;;;;;;5048509;28;1894;-69
2022/02/05 13:58:43;;;;;;;;;;;20.70;55.80;;;;;;5034730;28;1891;-70
2022/02/05 14:01:09;;;;;;;;;;;20.70;55.80;;;;;;5046598;28;1278;-69
2022/02/05 14:03:35;;;;;;;;;;;20.70;55.80;;;;;;5054622;28;1276;-70
2022/02/05 14:06:03;;;;;;;;;;;20.70;55.90;;;;;;5044403;28;1146;-70
2022/02/05 14:08:29;;;;;;;;;;;20.70;55.90;;;;;;5036680;28;1605;-70
2022/02/05 14:10:55;;;;;;;;;;;20.70;55.90;;;;;;5052719;28;1098;-69
2022/02/05 14:13:20;;;;;;;;;;;20.60;55.90;;;;;;5035728;28;1255;-68
2022/02/05 14:15:57;;;;;;;;;;;20.60;55.90;;;;;;5055778;28;1746;-68
2022/02/05 14:18:22;;;;;;;;;;;20.60;55.90;;;;;;5037505;28;1971;-69
2022/02/05 14:20:52;;;;;;;;;;;20.60;56.00;;;;;;5032103;28;1076;-68
2022/02/05 14:23:20;;;;;;;;;;;20.60;56.00;;;;;;5054839;28;1376;-69
2022/02/05 14:25:49;;;;;;;;;;;20.60;56.00;;;;;;5057718;28;1351;-69
2022/02/05 14:28:17;;;;;;;;;;;20.60;56.00;;;;;;5055272;28;1269;-71
2022/02/05 14:30:56;;;;;;;;;;;20.60;56.10;;;;;;5040753;28;1210;-67
2022/02/05 14:33:23;;;;;;;;;;;20.50;56.00;;;;;;5036228;28;1377;-70
2022/02/05 14:41:04;;;;;;;;;;;20.50;56.10;;;;;;5050187;28;1925;-69
2022/02/05 14:43:30;;;;;;;;;;;20.50;56.10;;;;;;5040679;28;2181;-68
2022/02/05 14:45:55;;;;;;;;;;;20.50;56.20;;;;;;5046274;28;1915;-69
2022/02/05 14:48:21;;;;;;;;;;;20.50;56.20;;;;;;5050838;28;1477;-68
2022/02/05 14:50:46;;;;;;;;;;;20.50;56.20;;;;;;5051420;28;1422;-67
2022/02/05 14:53:11;;;;;;;;;;;20.50;56.20;;;;;;5049213;28;1303;-69
2022/02/05 14:55:37;;;;;;;;;;;20.40;56.20;;;;;;5053325;28;1373;-68
2022/02/05 14:58:02;;;;;;;;;;;20.40;56.30;;;;;;5054971;28;1973;-68
2022/02/05 15:00:28;;;;;;;;;;;20.40;56.30;;;;;;5062028;28;2166;-69
2022/02/05 15:02:54;;;;;;;;;;;20.40;56.30;;;;;;5054581;28;1311;-68
2022/02/05 15:05:21;;;;;;;;;;;20.40;56.40;;;;;;5072579;28;1066;-69
2022/02/05 15:07:47;;;;;;;;;;;20.40;56.40;;;;;;5071110;28;1290;-67
2022/02/05 15:10:14;;;;;;;;;;;20.40;56.40;;;;;;5064119;28;1321;-69
2022/02/05 15:12:41;;;;;;;;;;;20.40;56.50;;;;;;5047506;28;1263;-69
2022/02/05 15:15:13;;;;;;;;;;;20.40;56.50;;;;;;5053341;28;1311;-68
2022/02/05 15:17:43;;;;;;;;;;;20.30;56.40;;;;;;5046780;28;1910;-68
2022/02/05 15:20:09;;;;;;;;;;;20.30;56.40;;;;;;5062597;28;1068;-68
2022/02/05 15:22:34;;;;;;;;;;;20.30;56.50;;;;;;5053114;28;1334;-68
2022/02/05 15:25:00;;;;;;;;;;;20.30;56.50;;;;;;5044966;28;1315;-68
2022/02/05 15:27:25;;;;;;;;;;;20.30;56.50;;;;;;5067885;28;1414;-67
2022/02/05 15:29:51;;;;;;;;;;;20.30;56.50;;;;;;5061273;28;1217;-68
2022/02/05 15:32:16;;;;;;;;;;;20.30;56.50;;;;;;5049426;28;1264;-69
2022/02/05 15:34:43;;;;;;;;;;;20.30;56.60;;;;;;5052372;28;1419;-68
2022/02/05 15:37:15;;;;;;;;;;;20.30;56.60;;;;;;5051728;28;1898;-68
2022/02/05 15:39:52;;;;;;;;;;;20.30;56.60;;;;;;5052673;28;1223;-68
2022/02/05 15:45:02;;;;;;;;;;;20.30;56.60;;;;;;5053052;28;1325;-68
2022/02/05 15:47:28;;;;;;;;;;;20.30;56.60;;;;;;5052920;28;1412;-68
2022/02/05 15:49:53;;;;;;;;;;;20.30;56.70;;;;;;5034725;28;1355;-67
2022/02/05 15:52:19;;;;;;;;;;;20.30;56.70;;;;;;5052787;28;1084;-68
2022/02/05 15:54:45;;;;;;;;;;;20.30;56.70;;;;;;5052719;28;1271;-68
2022/02/05 16:02:19;;;;;;;;;;;20.20;56.70;;;;;;5036846;28;1040;-68
2022/02/05 16:04:46;;;;;;;;;;;20.20;56.70;;;;;;5052704;28;1255;-69
2022/02/05 16:07:11;;;;;;;;;;;20.20;56.80;;;;;;5052561;28;1284;-68
2022/02/05 16:09:37;;;;;;;;;;;20.20;56.80;;;;;;5052266;28;1923;-68
2022/02/05 16:12:02;;;;;;;;;;;20.20;56.80;;;;;;5052682;28;1127;-68
2022/02/05 16:14:28;;;;;;;;;;;20.20;56.80;;;;;;5052461;28;1409;-68
2022/02/05 16:16:53;;;;;;;;;;;20.20;56.80;;;;;;5052648;28;1902;-68
2022/02/05 16:19:19;;;;;;;;;;;20.20;56.80;;;;;;5052431;28;1389;-67
2022/02/05 16:21:44;;;;;;;;;;;20.20;56.80;;;;;;5052576;28;1076;-67
2022/02/05 16:24:09;;;;;;;;;;;20.20;56.80;;;;;;5052014;28;1271;-67
2022/02/05 16:26:36;;;;;;;;;;;20.10;56.80;;;;;;5052760;28;1139;-68
2022/02/05 16:29:01;;;;;;;;;;;20.20;56.90;;;;;;5051954;28;1322;-68
2022/02/05 16:31:27;;;;;;;;;;;20.10;56.90;;;;;;5052577;28;1299;-68
2022/02/05 16:33:54;;;;;;;;;;;20.10;56.90;;;;;;5052233;28;1444;-68
2022/02/05 16:36:27;;;;;;;;;;;20.10;56.90;;;;;;5052448;28;1902;-67
2022/02/05 16:38:57;;;;;;;;;;;20.10;56.90;;;;;;5044370;28;2047;-67
2022/02/05 16:41:22;;;;;;;;;;;20.10;56.80;;;;;;5028820;28;2005;-67
2022/02/05 16:43:48;;;;;;;;;;;20.20;57.50;;;;;;5060013;28;1351;-67
2022/02/05 16:46:15;;;;;;;;;;;20.10;56.80;;;;;;5055911;28;1381;-67
2022/02/05 16:48:40;;;;;;;;;;;20.10;56.90;;;;;;5031454;28;1405;-67
2022/02/05 16:51:13;;;;;;;;;;;20.10;56.90;;;;;;5061846;28;1248;-67
2022/02/05 16:53:38;;;;;;;;;;;20.10;56.90;;;;;;5039458;28;1336;-67
2022/02/05 16:56:04;;;;;;;;;;;20.10;56.90;;;;;;5056941;28;1371;-67
2022/02/05 16:58:29;;;;;;;;;;;20.10;56.90;;;;;;5042500;28;1902;-67
2022/02/05 17:00:55;;;;;;;;;;;20.10;56.90;;;;;;5060943;28;1358;-67
2022/02/05 17:03:20;;;;;;;;;;;20.10;56.90;;;;;;5037976;28;1352;-66
2022/02/05 17:05:46;;;;;;;;;;;20.10;56.90;;;;;;5055626;28;1456;-67
2022/02/05 17:08:12;;;;;;;;;;;20.10;56.90;;;;;;5037668;28;1154;-67
2022/02/05 17:10:38;;;;;;;;;;;20.10;56.90;;;;;;5037730;28;1340;-67
2022/02/05 17:13:04;;;;;;;;;;;20.10;56.90;;;;;;5053929;28;1430;-67
2022/02/05 17:15:30;;;;;;;;;;;20.10;56.90;;;;;;5058461;28;1331;-66
2022/02/05 17:20:33;;;;;;;;;;;20.10;56.90;;;;;;5044123;28;1135;-67